• Join FlightAware (Why Join?)
  • Login
  • US Flag 
01:27AM EDT


 

Airport Tracker/Info


-or-


 

Live Flight TrackerFlight Track Log ✈ UAL4528 ✈ 12-Apr-2013 ✈ KRDU - KIAH

Flight Track Log - Related Links

Times and Time Zones

All times are in EDT time to prevent confusion due to time zone crossing. See the UAL4528 flight status page for this flight to view local times or setup timezone preferences in your user account.

Time Position Orientation Groundspeed Altitude Reporting Facility
EDT Latitude Longitude Course Direction KTS MPH feet Rate Location/Type
01:55PM 35.8664 -78.8139 270° West 160 184 1,100  Level Washington Center
01:55PM 35.8494 -78.8311 219° Southwest 169 194 2,100 2,100 Climbing Washington Center
01:56PM 35.8086 -78.8731 220° Southwest 210 242 4,100 2,340 Climbing Washington Center
01:57PM 35.7942 -78.9364 254° West 238 274 6,400 2,460 Climbing Washington Center
01:58PM 35.8387 -79.2299 263° West  Level FlightAware Approximate
01:58PM 35.8025 -79.0186 277° West 238 274 8,800  Level Washington Center
01:59PM 35.8288 -79.3415 262° West  Level FlightAware Approximate
01:59PM 35.8144 -79.1036 280° West 243 280 10,600  Level Washington Center
02:00PM 35.8167 -79.4528 270° West  Level FlightAware Approximate
02:00PM 35.8242 -79.1964 277° West 284 327 11,100  Level Washington Center
02:01PM 35.8353 -79.3172 277° West 328 377 13,200 1,920 Climbing Washington Center
02:02PM 35.8281 -79.4144 265° West 328 377 15,000 1,380 Climbing Washington Center
02:04PM 35.8000 -79.6375 261° West 334 384 17,500 1,200 Climbing Atlanta Center
02:05PM 35.7811 -79.7511 258° West 334 384 18,700 1,080 Climbing Atlanta Center
02:06PM 35.7622 -79.8675 259° West 344 396 19,700 960 Climbing Atlanta Center
02:07PM 35.7472 -79.9858 261° West 349 402 20,700 1,080 Climbing Atlanta Center
02:08PM 35.7286 -80.1172 260° West 360 414 21,900 1,080 Climbing Atlanta Center
02:09PM 35.7136 -80.2406 262° West 360 414 22,900 960 Climbing Atlanta Center
02:10PM 35.6986 -80.3642 262° West 360 414 23,900 900 Climbing Atlanta Center
02:11PM 35.6836 -80.4850 261° West 360 414 24,800 600 Climbing Atlanta Center
02:12PM 35.6661 -80.6108 260° West 372 428 25,100 240 Climbing Atlanta Center
02:13PM 35.6506 -80.7242 260° West 372 428 25,300 300 Climbing Atlanta Center
02:14PM 35.6331 -80.8550 261° West 377 434 25,700 420 Climbing Atlanta Center
02:15PM 35.6156 -80.9808 260° West 377 434 26,200 480 Climbing Atlanta Center
02:16PM 35.5978 -81.1094 260° West 377 434 26,700 540 Climbing Atlanta Center
02:17PM 35.5758 -81.2481 259° West 377 434 27,300 540 Climbing Atlanta Center
02:18PM 35.5583 -81.3889 261° West 398 458 27,800 480 Climbing Atlanta Center
02:19PM 35.5419 -81.5119 261° West 392 451 28,300 480 Climbing Atlanta Center
02:20PM 35.5236 -81.6350 260° West 377 434 28,800 480 Climbing Atlanta Center
02:21PM 35.5069 -81.7478 260° West 377 434 29,300 480 Climbing Atlanta Center
02:22PM 35.4906 -81.8706 261° West 371 427 29,800 480 Climbing Atlanta Center
02:23PM 35.4717 -81.9961 260° West 371 427 30,300 480 Climbing Atlanta Center
02:24PM 35.4528 -82.1164 259° West 371 427 30,800 540 Climbing Atlanta Center
02:25PM 35.4361 -82.2442 261° West 376 433 31,400 540 Climbing Atlanta Center
02:26PM 35.4147 -82.3669 258° West 376 433 31,900 480 Climbing Atlanta Center
02:27PM 35.3958 -82.5050 261° West 376 433 32,400 480 Climbing Atlanta Center
02:28PM 35.3783 -82.6175 259° West 371 427 32,900 1,020 Climbing Atlanta Center
02:29PM 35.3586 -82.7350 258° West 371 427 34,500 1,500 Climbing Atlanta Center
02:30PM 35.3411 -82.8472 259° West 359 413 36,000 720 Climbing Atlanta Center
02:31PM 35.3214 -82.9672 259° West 334 384 36,000  Level Atlanta Center
02:32PM 35.3036 -83.0819 259° West 344 396 36,000  Level Atlanta Center
02:33PM 35.2836 -83.2017 258° West 356 410 36,000  Level Atlanta Center
02:34PM 35.2633 -83.3114 257° West 356 410 36,000  Level Atlanta Center
02:35PM 35.2203 -83.4211 244° Southwest 356 410 36,000  Level Atlanta Center
02:36PM 35.1728 -83.5433 245° Southwest 363 418 36,000  Level Atlanta Center
02:37PM 35.1356 -83.6425 245° Southwest 363 418 36,000  Level Atlanta Center
02:38PM 35.0900 -83.7544 244° Southwest 363 418 36,000  Level Atlanta Center
02:39PM 35.0464 -83.8689 245° Southwest 363 418 36,000  Level Atlanta Center
02:40PM 35.0047 -83.9778 245° Southwest 363 418 36,000  Level Atlanta Center
02:41PM 34.9631 -84.0894 246° West 363 418 36,000  Level Atlanta Center
02:42PM 34.9192 -84.1983 244° Southwest 363 418 36,000  Level Atlanta Center
02:43PM 34.8731 -84.3172 245° Southwest 358 412 36,000  Level Atlanta Center
02:44PM 34.8331 -84.4258 246° West 365 420 36,000  Level Atlanta Center
02:45PM 34.7992 -84.5142 245° Southwest 365 420 36,000  Level Atlanta Center
02:46PM 34.7486 -84.6353 243° Southwest 365 420 36,000  Level Atlanta Center
02:47PM 34.7042 -84.7436 244° Southwest 360 414 36,000  Level Atlanta Center
02:48PM 34.6556 -84.8669 244° Southwest 360 414 36,000  Level Atlanta Center
02:49PM 34.6150 -84.9725 245° Southwest 360 414 36,000  Level Atlanta Center
02:50PM 34.5747 -85.0806 246° West 366 421 36,000  Level Atlanta Center
02:51PM 34.5319 -85.1783 242° Southwest 360 414 36,000  Level Atlanta Center
02:52PM 34.4872 -85.2889 244° Southwest 360 414 36,000  Level Atlanta Center
02:53PM 34.4442 -85.3964 244° Southwest 360 414 36,000  Level Atlanta Center
02:54PM 34.4014 -85.5039 244° Southwest 360 414 36,000  Level Atlanta Center
02:55PM 34.3625 -85.6092 246° West 360 414 36,000  Level Atlanta Center
02:56PM 34.3172 -85.7139 242° Southwest 355 409 36,000  Level Atlanta Center
02:57PM 34.2697 -85.8286 243° Southwest 355 409 36,000  Level Atlanta Center
02:58PM 34.2286 -85.9181 241° Southwest 350 403 36,000  Level Atlanta Center
02:59PM 34.1853 -86.0225 243° Southwest 345 397 36,000  Level Atlanta Center
03:00PM 34.1417 -86.1294 244° Southwest 345 397 36,000  Level Atlanta Center
03:01PM 34.0981 -86.2364 244° Southwest 345 397 36,000  Level Atlanta Center
03:02PM 34.0544 -86.3431 244° Southwest 350 403 36,000  Level Atlanta Center
03:03PM 34.0108 -86.4472 243° Southwest 350 403 36,000  Level Atlanta Center
03:04PM 33.9669 -86.5536 244° Southwest 355 409 36,000  Level Atlanta Center
03:05PM 33.9189 -86.6597 241° Southwest 361 415 36,000  Level Atlanta Center
03:06PM 33.8767 -86.7661 244° Southwest 361 415 36,000  Level Atlanta Center
03:07PM 33.8306 -86.8772 243° Southwest 361 415 36,000  Level Atlanta Center
03:08PM 33.7861 -86.9831 243° Southwest 361 415 36,000  Level Atlanta Center
03:09PM 33.7378 -87.0889 241° Southwest 361 415 36,000  Level Atlanta Center
03:10PM 33.6911 -87.1994 243° Southwest 361 415 36,000  Level Atlanta Center
03:11PM 33.6444 -87.3103 243° Southwest 361 415 36,000  Level Atlanta Center
03:12PM 33.5794 -87.4625 243° Southwest 389 448 36,000  Level Memphis Center
03:13PM 33.5319 -87.5711 242° Southwest 384 442 36,000  Level Memphis Center
03:14PM 33.4864 -87.6797 243° Southwest 374 430 36,000  Level Memphis Center
03:15PM 33.4386 -87.7883 242° Southwest 374 430 36,000  Level Memphis Center
03:16PM 33.3928 -87.8964 243° Southwest 374 430 36,000  Level Memphis Center
03:17PM 33.3447 -88.0072 243° Southwest 374 430 36,000  Level Memphis Center
03:18PM 33.2986 -88.1128 242° Southwest 374 430 36,000  Level Memphis Center
03:19PM 33.2608 -88.2108 245° Southwest 368 423 36,000  Level Memphis Center
03:20PM 33.2125 -88.3186 242° Southwest 368 423 36,000  Level Memphis Center
03:21PM 33.1661 -88.4264 243° Southwest 363 418 36,000  Level Memphis Center
03:22PM 33.1156 -88.5342 241° Southwest 368 423 36,000  Level Memphis Center
03:23PM 33.0672 -88.6419 242° Southwest 374 430 36,000  Level Memphis Center
03:24PM 33.0206 -88.7492 243° Southwest 374 430 36,000  Level Memphis Center
03:25PM 32.9739 -88.8567 243° Southwest 374 430 36,000  Level Memphis Center
03:26PM 32.9250 -88.9614 241° Southwest 374 430 36,000  Level Memphis Center
03:27PM 32.8739 -89.0736 242° Southwest 374 430 36,000  Level Memphis Center
03:28PM 32.8269 -89.1831 243° Southwest 374 430 36,000  Level Memphis Center
03:29PM 32.7781 -89.2900 241° Southwest 374 430 36,000  Level Memphis Center
03:30PM 32.7267 -89.3967 240° Southwest 374 430 36,000  Level Memphis Center
03:31PM 32.6794 -89.5058 243° Southwest 374 430 36,000  Level Memphis Center
03:32PM 32.6281 -89.6147 241° Southwest 374 430 36,000  Level Memphis Center
03:33PM 32.5764 -89.7236 241° Southwest 374 430 36,000  Level Memphis Center
03:34PM 32.5289 -89.8325 243° Southwest 374 430 36,000  Level Memphis Center
03:35PM 32.4769 -89.9411 240° Southwest 374 430 36,000  Level Memphis Center
03:36PM 32.4294 -90.0472 242° Southwest 374 430 36,000  Level Memphis Center
03:37PM 32.3775 -90.1556 240° Southwest 374 430 36,000  Level Memphis Center
03:38PM 32.3294 -90.2639 242° Southwest 374 430 36,000  Level Memphis Center
03:39PM 32.2794 -90.3694 241° Southwest 374 430 36,000  Level Memphis Center
03:40PM 32.2292 -90.4778 241° Southwest 374 430 36,000  Level Memphis Center
03:41PM 32.1769 -90.5856 240° Southwest 374 430 36,000  Level Memphis Center
03:42PM 32.1267 -90.6933 241° Southwest 374 430 36,000  Level Memphis Center
03:43PM 32.1083 -90.7353 243° Southwest 377 434 36,000  Level Houston Center
03:44PM 32.0553 -90.8464 241° Southwest 376 433 36,000  Level Houston Center
03:45PM 32.0053 -90.9542 241° Southwest 376 433 36,000  Level Houston Center
03:46PM 31.9536 -91.0639 241° Southwest 383 441 36,000  Level Houston Center
03:47PM 31.9017 -91.1714 240° Southwest 380 437 36,000  Level Houston Center
03:48PM 31.8403 -91.3003 241° Southwest 378 435 36,000  Level Houston Center
03:49PM 31.7881 -91.4083 240° Southwest 380 437 36,000  Level Houston Center
03:50PM 31.7367 -91.5153 241° Southwest 377 434 36,000  Level Houston Center
03:51PM 31.6858 -91.6231 241° Southwest 378 435 36,000  Level Houston Center
03:52PM 31.6333 -91.7294 240° Southwest 378 435 36,000  Level Houston Center
03:53PM 31.5828 -91.8364 241° Southwest 376 433 36,000  Level Houston Center
03:54PM 31.5192 -91.9656 240° Southwest 382 440 36,000  Level Houston Center
03:55PM 31.4708 -92.0619 240° Southwest 380 437 36,000  Level Houston Center
03:56PM 31.4194 -92.1692 241° Southwest 379 436 36,000  Level Houston Center
03:57PM 31.3569 -92.2964 240° Southwest 376 433 36,000  Level Houston Center
03:58PM 31.3042 -92.4031 240° Southwest 379 436 36,000  Level Houston Center
03:59PM 31.2503 -92.5114 240° Southwest 384 442 36,000 -180 Level Houston Center
04:00PM 31.1931 -92.6147 237° Southwest 381 438 35,700 -420 Descending Houston Center
04:01PM 31.1367 -92.7150 237° Southwest 370 426 35,200 -780 Descending Houston Center
04:02PM 31.0675 -92.8372 237° Southwest 376 433 34,100 -1,080 Descending Houston Center
04:04PM 31.0094 -92.9417 237° Southwest 383 441 33,000 -1,020 Descending Houston Center
04:05PM 30.9506 -93.0461 237° Southwest 386 444 32,000 -1,020 Descending Houston Center
04:06PM 30.8908 -93.1517 237° Southwest 389 448 30,900 -1,020 Descending Houston Center
04:07PM 30.8314 -93.2589 237° Southwest 395 455 29,900 -1,020 Descending Houston Center
04:08PM 30.7706 -93.3669 237° Southwest 399 459 28,800 -1,140 Descending Houston Center
04:09PM 30.6964 -93.4961 236° Southwest 402 463 27,600 -1,140 Descending Houston Center
04:10PM 30.6358 -93.6053 237° Southwest 407 468 26,500 -1,020 Descending Houston Center
04:11PM 30.5719 -93.7150 236° Southwest 407 468 25,500 -1,020 Descending Houston Center
04:12PM 30.5117 -93.8203 236° Southwest 408 470 24,400 -780 Descending Houston Center
04:13PM 30.4383 -93.9486 236° Southwest 403 464 23,900 -1,080 Descending Houston Center
04:13PM 30.4025 -94.0103 236° Southwest 385 443 22,700 -2,520 Descending Houston Center
04:14PM 30.3806 -94.0481 236° Southwest 378 435 21,300 -3,780 Descending Houston Center
04:14PM 30.3469 -94.1050 236° Southwest 368 423 18,900 -3,600 Descending Houston Center
04:15PM 30.3233 -94.1472 237° Southwest 372 428 17,500 -3,240 Descending Houston Center
04:15PM 30.2914 -94.2022 236° Southwest 371 427 15,900 -3,000 Descending Houston Center
04:16PM 30.2664 -94.2456 236° Southwest 370 426 14,500 -3,060 Descending Houston Center
04:16PM 30.2342 -94.3017 236° Southwest 358 412 12,800 -2,460 Descending Houston Center
04:17PM 30.2119 -94.3403 236° Southwest 357 411 12,000 -840 Descending Houston Center
04:17PM 30.1900 -94.4092 250° West 309 356 11,900 -540 Descending Houston Center
04:18PM 30.1822 -94.4558 259° West 315 362 11,500 -780 Descending Houston Center
04:18PM 30.1753 -94.4933 258° West 308 354 11,200 -900 Descending Houston Center
04:19PM 30.1675 -94.5475 261° West 307 353 10,600 -1,200 Descending Houston Center
04:19PM 30.1575 -94.5922 256° West 290 334 10,000 -1,200 Descending Houston Center
04:20PM 30.1511 -94.6361 260° West 289 333 9,400 -1,260 Descending Houston Center
04:20PM 30.1433 -94.6836 259° West 283 326 8,700 -1,380 Descending Houston Center
04:21PM 30.1364 -94.7256 259° West 285 328 8,000 -1,380 Descending Houston Center
04:21PM 30.1267 -94.7728 257° West 285 328 7,300 -1,560 Descending Houston Center
04:22PM 30.1175 -94.8325 260° West 284 327 6,400 -1,260 Descending Houston Center
04:23PM 30.1119 -94.8617 258° West 284 327 6,000 -420 Descending Houston Center
04:23PM 30.1058 -94.9197 263° West 277 319 6,000  Level Houston Center
04:24PM 30.1061 -94.9542 271° West 266 306 6,000  Level Houston Center
04:24PM 30.1058 -95.0044 270° West 266 306 6,000  Level Houston Center
04:25PM 30.1058 -95.0411 270° West 272 313 6,000 60 Level Houston Center
04:25PM 30.1072 -95.0928 272° West 275 316 6,100  Climbing Houston Center
04:26PM 30.1058 -95.1306 268° West 280 322 6,000 -120 Descending Houston Center
04:26PM 30.1078 -95.1806 273° West 275 316 6,000  Level Houston Center
04:27PM 30.1056 -95.2175 266° West 254 292 6,000  Level Houston Center
04:27PM 30.1069 -95.2736 272° West 251 289 6,000  Level Houston Center
04:28PM 30.1067 -95.2969 269° West 245 282 6,000  Level Houston Center
04:28PM 30.1078 -95.3494 271° West 241 277 6,000  Level Houston Center
04:29PM 30.1072 -95.3742 269° West 230 265 6,000 -540 Level Houston Center
04:29PM 30.1078 -95.4206 271° West 229 264 5,500 -1,500 Descending Houston Center
04:30PM 30.1075 -95.4442 269° West 210 242 4,500 -2,160 Descending Houston Center
04:30PM 30.1044 -95.4894 266° West 221 254 3,300 -1,740 Descending Houston Center
04:31PM 30.0750 -95.5036 203° Southwest 214 246 2,600 -1,200 Descending Houston Center
04:31PM 30.0486 -95.4911 158° South 218 251 2,100 -600 Descending Houston Center
04:32PM 30.0222 -95.4761 154° Southeast 201 231 2,000 -420 Descending Houston Center
04:32PM 30.0014 -95.4542 138° Southeast 211 243 1,700 -600 Descending Houston Center
04:33PM 29.9925 -95.4292 112° Southeast 141 162 1,400 -780 Descending Houston Center
04:34PM 29.9928 -95.4008 89° East 157 181 900 -720 Descending Houston Center
04:34PM 29.9931 -95.3881 89° East 125 144 700 -420 Descending Houston Center
04:35PM 29.9944 -95.3625 86° East 147 169 500 -300 Descending Houston Center